sensor_id;sensor_type;location;lat;lon;timestamp;P1;durP1;ratioP1;P2;durP2;ratioP2
42846;SDS011;75159;49.916;14.536;2024-02-15T00:08:32;6.55;;;4.30;;
42846;SDS011;75159;49.916;14.536;2024-02-15T00:18:53;5.78;;;3.60;;
42846;SDS011;75159;49.916;14.536;2024-02-15T00:29:16;7.18;;;2.80;;
42846;SDS011;75159;49.916;14.536;2024-02-15T00:39:36;4.35;;;2.53;;
42846;SDS011;75159;49.916;14.536;2024-02-15T00:49:57;4.40;;;2.28;;
42846;SDS011;75159;49.916;14.536;2024-02-15T01:00:19;4.80;;;2.60;;
42846;SDS011;75159;49.916;14.536;2024-02-15T01:10:41;7.88;;;3.10;;
42846;SDS011;75159;49.916;14.536;2024-02-15T01:21:02;6.25;;;3.40;;
42846;SDS011;75159;49.916;14.536;2024-02-15T01:31:23;4.80;;;3.10;;
42846;SDS011;75159;49.916;14.536;2024-02-15T01:41:47;6.55;;;3.40;;
42846;SDS011;75159;49.916;14.536;2024-02-15T01:52:11;3.58;;;2.75;;
42846;SDS011;75159;49.916;14.536;2024-02-15T02:02:33;4.72;;;3.40;;
42846;SDS011;75159;49.916;14.536;2024-02-15T02:12:56;4.68;;;2.72;;
42846;SDS011;75159;49.916;14.536;2024-02-15T02:23:17;3.92;;;2.65;;
42846;SDS011;75159;49.916;14.536;2024-02-15T02:33:47;4.97;;;2.83;;
42846;SDS011;75159;49.916;14.536;2024-02-15T02:44:15;4.15;;;2.67;;
42846;SDS011;75159;49.916;14.536;2024-02-15T02:54:36;3.90;;;2.92;;
42846;SDS011;75159;49.916;14.536;2024-02-15T03:04:57;3.35;;;2.65;;
42846;SDS011;75159;49.916;14.536;2024-02-15T03:15:20;4.93;;;3.10;;
42846;SDS011;75159;49.916;14.536;2024-02-15T03:25:42;3.28;;;2.70;;
42846;SDS011;75159;49.916;14.536;2024-02-15T03:36:04;4.47;;;2.70;;
42846;SDS011;75159;49.916;14.536;2024-02-15T03:46:26;7.57;;;2.53;;
42846;SDS011;75159;49.916;14.536;2024-02-15T03:56:48;4.47;;;2.80;;
42846;SDS011;75159;49.916;14.536;2024-02-15T04:07:13;5.07;;;2.90;;
42846;SDS011;75159;49.916;14.536;2024-02-15T04:17:35;6.57;;;3.22;;
42846;SDS011;75159;49.916;14.536;2024-02-15T04:27:56;5.63;;;3.00;;
42846;SDS011;75159;49.916;14.536;2024-02-15T04:38:18;4.13;;;3.42;;
42846;SDS011;75159;49.916;14.536;2024-02-15T04:48:40;2.90;;;2.60;;
42846;SDS011;75159;49.916;14.536;2024-02-15T04:59:05;4.35;;;2.67;;
42846;SDS011;75159;49.916;14.536;2024-02-15T05:09:29;4.93;;;3.25;;
42846;SDS011;75159;49.916;14.536;2024-02-15T05:19:52;4.38;;;2.92;;
42846;SDS011;75159;49.916;14.536;2024-02-15T05:30:13;5.97;;;2.80;;
42846;SDS011;75159;49.916;14.536;2024-02-15T05:40:35;4.65;;;2.95;;
42846;SDS011;75159;49.916;14.536;2024-02-15T05:50:56;4.35;;;3.15;;
42846;SDS011;75159;49.916;14.536;2024-02-15T06:01:19;5.15;;;3.03;;
42846;SDS011;75159;49.916;14.536;2024-02-15T06:11:41;4.32;;;3.33;;
42846;SDS011;75159;49.916;14.536;2024-02-15T06:22:05;5.03;;;3.22;;
42846;SDS011;75159;49.916;14.536;2024-02-15T06:32:26;5.32;;;3.67;;
42846;SDS011;75159;49.916;14.536;2024-02-15T06:43:05;4.82;;;3.40;;
42846;SDS011;75159;49.916;14.536;2024-02-15T06:53:26;5.00;;;3.33;;
42846;SDS011;75159;49.916;14.536;2024-02-15T07:03:46;4.95;;;2.95;;
42846;SDS011;75159;49.916;14.536;2024-02-15T07:14:08;4.10;;;2.95;;
42846;SDS011;75159;49.916;14.536;2024-02-15T07:24:29;4.93;;;3.63;;
42846;SDS011;75159;49.916;14.536;2024-02-15T07:34:50;4.97;;;3.42;;
42846;SDS011;75159;49.916;14.536;2024-02-15T07:45:11;4.60;;;3.85;;
42846;SDS011;75159;49.916;14.536;2024-02-15T07:55:32;3.70;;;3.10;;
42846;SDS011;75159;49.916;14.536;2024-02-15T08:05:54;5.00;;;3.78;;
42846;SDS011;75159;49.916;14.536;2024-02-15T08:16:16;4.57;;;3.65;;
42846;SDS011;75159;49.916;14.536;2024-02-15T08:26:39;4.88;;;3.53;;
42846;SDS011;75159;49.916;14.536;2024-02-15T08:37:00;9.80;;;4.10;;
42846;SDS011;75159;49.916;14.536;2024-02-15T08:47:21;11.98;;;4.05;;
42846;SDS011;75159;49.916;14.536;2024-02-15T08:57:42;5.40;;;4.20;;
42846;SDS011;75159;49.916;14.536;2024-02-15T09:08:05;3.28;;;2.65;;
42846;SDS011;75159;49.916;14.536;2024-02-15T09:18:26;5.25;;;3.47;;
42846;SDS011;75159;49.916;14.536;2024-02-15T09:28:47;4.53;;;3.80;;
42846;SDS011;75159;49.916;14.536;2024-02-15T09:39:08;4.43;;;3.03;;
42846;SDS011;75159;49.916;14.536;2024-02-15T09:49:29;4.00;;;2.67;;
42846;SDS011;75159;49.916;14.536;2024-02-15T09:59:54;4.25;;;2.70;;
42846;SDS011;75159;49.916;14.536;2024-02-15T10:10:16;4.88;;;3.30;;
42846;SDS011;75159;49.916;14.536;2024-02-15T10:20:37;4.03;;;3.25;;
42846;SDS011;75159;49.916;14.536;2024-02-15T10:31:00;5.07;;;2.15;;
42846;SDS011;75159;49.916;14.536;2024-02-15T10:41:28;5.13;;;3.28;;
42846;SDS011;75159;49.916;14.536;2024-02-15T10:51:57;2.75;;;2.38;;
42846;SDS011;75159;49.916;14.536;2024-02-15T11:12:50;4.13;;;2.95;;
42846;SDS011;75159;49.916;14.536;2024-02-15T11:23:12;4.25;;;3.22;;
42846;SDS011;75159;49.916;14.536;2024-02-15T11:33:55;2.90;;;2.60;;
42846;SDS011;75159;49.916;14.536;2024-02-15T11:44:16;2.95;;;2.20;;
42846;SDS011;75159;49.916;14.536;2024-02-15T11:54:38;1.85;;;1.38;;
42846;SDS011;75159;49.916;14.536;2024-02-15T12:04:58;0.95;;;0.88;;
42846;SDS011;75159;49.916;14.536;2024-02-15T12:15:38;1.40;;;1.07;;
42846;SDS011;75159;49.916;14.536;2024-02-15T12:26:21;0.90;;;0.77;;
42846;SDS011;75159;49.916;14.536;2024-02-15T12:36:44;1.77;;;1.17;;
42846;SDS011;75159;49.916;14.536;2024-02-15T12:47:06;1.30;;;0.88;;
42846;SDS011;75159;49.916;14.536;2024-02-15T12:57:27;1.70;;;1.17;;
42846;SDS011;75159;49.916;14.536;2024-02-15T13:07:49;1.35;;;0.73;;
42846;SDS011;75159;49.916;14.536;2024-02-15T13:18:11;2.00;;;1.02;;
42846;SDS011;75159;49.916;14.536;2024-02-15T13:28:34;1.40;;;1.17;;
42846;SDS011;75159;49.916;14.536;2024-02-15T13:38:55;1.52;;;1.20;;
42846;SDS011;75159;49.916;14.536;2024-02-15T13:49:16;1.40;;;1.30;;
42846;SDS011;75159;49.916;14.536;2024-02-15T13:59:48;1.63;;;1.17;;
42846;SDS011;75159;49.916;14.536;2024-02-15T14:10:09;3.35;;;1.40;;
42846;SDS011;75159;49.916;14.536;2024-02-15T14:20:30;1.85;;;1.10;;
42846;SDS011;75159;49.916;14.536;2024-02-15T14:30:52;1.23;;;0.88;;
42846;SDS011;75159;49.916;14.536;2024-02-15T14:41:32;3.37;;;0.97;;
42846;SDS011;75159;49.916;14.536;2024-02-15T14:51:53;2.25;;;1.10;;
42846;SDS011;75159;49.916;14.536;2024-02-15T15:02:14;1.15;;;0.90;;
42846;SDS011;75159;49.916;14.536;2024-02-15T15:12:35;1.33;;;0.95;;
42846;SDS011;75159;49.916;14.536;2024-02-15T15:23:02;1.10;;;1.00;;
42846;SDS011;75159;49.916;14.536;2024-02-15T15:33:25;4.07;;;1.30;;
42846;SDS011;75159;49.916;14.536;2024-02-15T15:43:46;4.55;;;2.50;;
42846;SDS011;75159;49.916;14.536;2024-02-15T15:54:06;3.47;;;2.40;;
42846;SDS011;75159;49.916;14.536;2024-02-15T16:04:28;7.85;;;3.20;;
42846;SDS011;75159;49.916;14.536;2024-02-15T16:14:49;4.93;;;2.53;;
42846;SDS011;75159;49.916;14.536;2024-02-15T16:25:10;2.30;;;1.73;;
42846;SDS011;75159;49.916;14.536;2024-02-15T16:35:31;4.32;;;2.20;;
42846;SDS011;75159;49.916;14.536;2024-02-15T16:45:52;2.55;;;1.55;;
42846;SDS011;75159;49.916;14.536;2024-02-15T16:56:19;6.68;;;2.97;;
42846;SDS011;75159;49.916;14.536;2024-02-15T17:06:44;17.63;;;9.15;;
42846;SDS011;75159;49.916;14.536;2024-02-15T17:17:05;11.30;;;6.90;;
42846;SDS011;75159;49.916;14.536;2024-02-15T17:27:26;18.30;;;9.10;;
42846;SDS011;75159;49.916;14.536;2024-02-15T17:37:47;17.17;;;10.70;;
42846;SDS011;75159;49.916;14.536;2024-02-15T17:48:08;12.95;;;8.05;;
42846;SDS011;75159;49.916;14.536;2024-02-15T17:58:30;7.90;;;4.20;;
42846;SDS011;75159;49.916;14.536;2024-02-15T18:08:52;20.75;;;12.27;;
42846;SDS011;75159;49.916;14.536;2024-02-15T18:19:13;26.67;;;16.15;;
42846;SDS011;75159;49.916;14.536;2024-02-15T18:29:34;23.83;;;14.73;;
42846;SDS011;75159;49.916;14.536;2024-02-15T18:39:56;34.60;;;19.17;;
42846;SDS011;75159;49.916;14.536;2024-02-15T18:50:31;29.83;;;16.60;;
42846;SDS011;75159;49.916;14.536;2024-02-15T19:00:55;47.13;;;25.58;;
42846;SDS011;75159;49.916;14.536;2024-02-15T19:11:18;25.05;;;17.15;;
42846;SDS011;75159;49.916;14.536;2024-02-15T19:21:39;25.83;;;12.95;;
42846;SDS011;75159;49.916;14.536;2024-02-15T19:32:00;25.23;;;14.98;;
42846;SDS011;75159;49.916;14.536;2024-02-15T19:42:21;13.65;;;8.63;;
42846;SDS011;75159;49.916;14.536;2024-02-15T19:52:42;14.27;;;9.25;;
42846;SDS011;75159;49.916;14.536;2024-02-15T20:03:04;23.15;;;14.30;;
42846;SDS011;75159;49.916;14.536;2024-02-15T20:13:25;19.00;;;11.73;;
42846;SDS011;75159;49.916;14.536;2024-02-15T20:23:47;87.72;;;39.80;;
42846;SDS011;75159;49.916;14.536;2024-02-15T20:34:09;24.77;;;16.15;;
42846;SDS011;75159;49.916;14.536;2024-02-15T20:44:30;23.40;;;16.38;;
42846;SDS011;75159;49.916;14.536;2024-02-15T20:54:51;21.33;;;14.57;;
42846;SDS011;75159;49.916;14.536;2024-02-15T21:05:12;21.52;;;14.63;;
42846;SDS011;75159;49.916;14.536;2024-02-15T21:15:34;17.85;;;11.63;;
42846;SDS011;75159;49.916;14.536;2024-02-15T21:25:57;21.58;;;14.55;;
42846;SDS011;75159;49.916;14.536;2024-02-15T21:36:18;22.35;;;14.05;;
42846;SDS011;75159;49.916;14.536;2024-02-15T21:46:39;20.17;;;12.93;;
42846;SDS011;75159;49.916;14.536;2024-02-15T21:57:02;17.65;;;11.70;;
42846;SDS011;75159;49.916;14.536;2024-02-15T22:07:23;18.17;;;10.65;;
42846;SDS011;75159;49.916;14.536;2024-02-15T22:17:44;15.52;;;10.48;;
42846;SDS011;75159;49.916;14.536;2024-02-15T22:28:05;21.67;;;11.48;;
42846;SDS011;75159;49.916;14.536;2024-02-15T22:38:26;25.38;;;16.50;;
42846;SDS011;75159;49.916;14.536;2024-02-15T22:48:47;16.85;;;10.13;;
42846;SDS011;75159;49.916;14.536;2024-02-15T22:59:09;12.80;;;7.65;;
42846;SDS011;75159;49.916;14.536;2024-02-15T23:09:30;20.98;;;12.25;;
42846;SDS011;75159;49.916;14.536;2024-02-15T23:19:51;12.55;;;7.05;;
42846;SDS011;75159;49.916;14.536;2024-02-15T23:30:12;9.85;;;6.40;;
42846;SDS011;75159;49.916;14.536;2024-02-15T23:40:33;11.95;;;7.97;;
42846;SDS011;75159;49.916;14.536;2024-02-15T23:50:54;12.23;;;8.02;;
